sensor_id;sensor_type;location;lat;lon;timestamp;pressure;altitude;pressure_sealevel;temperature;humidity
15260;BME280;34462;51.368;12.364;2024-02-16T00:00:19;100861.66;;;-141.84;97.15
15260;BME280;34462;51.368;12.364;2024-02-16T00:02:48;99534.38;;;-141.84;96.28
15260;BME280;34462;51.368;12.364;2024-02-16T00:05:16;94229.53;;;-141.84;93.34
15260;BME280;34462;51.368;12.364;2024-02-16T00:07:44;77036.81;;;-141.84;88.42
15260;BME280;34462;51.368;12.364;2024-02-16T00:10:13;78620.75;;;-141.84;89.23
15260;BME280;34462;51.368;12.364;2024-02-16T00:12:43;82319.06;;;-141.84;90.44
15260;BME280;34462;51.368;12.364;2024-02-16T00:15:11;86814.44;;;-141.84;91.68
15260;BME280;34462;51.368;12.364;2024-02-16T00:17:40;88931.63;;;-141.84;92.19
15260;BME280;34462;51.368;12.364;2024-02-16T00:20:09;87608.25;;;-141.84;91.91
15260;BME280;34462;51.368;12.364;2024-02-16T00:22:39;85756.25;;;-141.84;91.42
15260;BME280;34462;51.368;12.364;2024-02-16T00:25:08;88402.22;;;-141.84;92.15
15260;BME280;34462;51.368;12.364;2024-02-16T00:27:36;86814.44;;;-141.84;91.69
15260;BME280;34462;51.368;12.364;2024-02-16T00:30:09;84962.78;;;-141.84;91.25
15260;BME280;34462;51.368;12.364;2024-02-16T00:32:38;84962.78;;;-141.84;91.10
15260;BME280;34462;51.368;12.364;2024-02-16T00:35:07;75453.50;;;-141.84;88.31
15260;BME280;34462;51.368;12.364;2024-02-16T00:37:36;80205.34;;;-141.84;89.77
15260;BME280;34462;51.368;12.364;2024-02-16T00:40:06;83640.72;;;-141.84;90.83
15260;BME280;34462;51.368;12.364;2024-02-16T00:42:35;86020.75;;;-141.84;91.66
15260;BME280;34462;51.368;12.364;2024-02-16T00:45:05;88931.63;;;-141.84;92.43
15260;BME280;34462;51.368;12.364;2024-02-16T00:47:34;88931.63;;;-141.84;92.49
15260;BME280;34462;51.368;12.364;2024-02-16T00:50:04;82583.34;;;-141.84;90.50
15260;BME280;34462;51.368;12.364;2024-02-16T00:52:35;86814.44;;;-141.84;91.78
15260;BME280;34462;51.368;12.364;2024-02-16T00:55:04;91844.63;;;-141.84;93.72
15260;BME280;34462;51.368;12.364;2024-02-16T00:57:33;93964.47;;;-141.84;94.25
15260;BME280;34462;51.368;12.364;2024-02-16T01:00:02;95024.81;;;-141.84;94.69
15260;BME280;34462;51.368;12.364;2024-02-16T01:02:31;94229.53;;;-141.84;94.29
15260;BME280;34462;51.368;12.364;2024-02-16T01:05:02;89990.66;;;-141.84;92.81
15260;BME280;34462;51.368;12.364;2024-02-16T01:07:30;90255.47;;;-141.84;93.10
15260;BME280;34462;51.368;12.364;2024-02-16T01:09:59;91314.81;;;-141.84;93.17
15260;BME280;34462;51.368;12.364;2024-02-16T01:12:30;92639.44;;;-141.84;93.92
15260;BME280;34462;51.368;12.364;2024-02-16T01:14:58;85227.25;;;-141.84;91.30
15260;BME280;34462;51.368;12.364;2024-02-16T01:17:28;79412.97;;;-141.84;89.48
15260;BME280;34462;51.368;12.364;2024-02-16T01:19:57;79148.88;;;-141.84;89.50
15260;BME280;34462;51.368;12.364;2024-02-16T01:22:27;79412.97;;;-141.84;89.59
15260;BME280;34462;51.368;12.364;2024-02-16T01:24:56;78092.72;;;-141.84;89.32
15260;BME280;34462;51.368;12.364;2024-02-16T01:27:24;75981.22;;;-141.84;88.66
15260;BME280;34462;51.368;12.364;2024-02-16T01:29:54;75981.22;;;-141.84;88.70
15260;BME280;34462;51.368;12.364;2024-02-16T01:32:26;81526.28;;;-141.84;90.41
15260;BME280;34462;51.368;12.364;2024-02-16T01:34:54;84962.78;;;-141.84;91.25
15260;BME280;34462;51.368;12.364;2024-02-16T01:37:27;87343.63;;;-141.84;92.02
15260;BME280;34462;51.368;12.364;2024-02-16T01:39:55;90785.09;;;-141.84;93.51
15260;BME280;34462;51.368;12.364;2024-02-16T01:42:23;92639.44;;;-141.84;94.14
15260;BME280;34462;51.368;12.364;2024-02-16T01:44:52;91049.97;;;-141.84;93.04
15260;BME280;34462;51.368;12.364;2024-02-16T01:47:20;89725.88;;;-141.84;93.03
15260;BME280;34462;51.368;12.364;2024-02-16T01:49:49;90255.47;;;-141.84;92.85
15260;BME280;34462;51.368;12.364;2024-02-16T01:52:17;88666.94;;;-141.84;92.37
15260;BME280;34462;51.368;12.364;2024-02-16T01:54:48;84169.50;;;-141.84;91.16
15260;BME280;34462;51.368;12.364;2024-02-16T01:57:16;87079.03;;;-141.84;92.00
15260;BME280;34462;51.368;12.364;2024-02-16T01:59:45;90785.09;;;-141.84;93.49
15260;BME280;34462;51.368;12.364;2024-02-16T02:02:13;95820.25;;;-141.84;95.31
15260;BME280;34462;51.368;12.364;2024-02-16T02:04:42;96350.63;;;-141.84;95.56
15260;BME280;34462;51.368;12.364;2024-02-16T02:07:14;99003.56;;;-141.84;96.74
15260;BME280;34462;51.368;12.364;2024-02-16T02:09:43;98472.84;;;-141.84;96.40
15260;BME280;34462;51.368;12.364;2024-02-16T02:12:13;101392.69;;;-141.84;98.03
15260;BME280;34462;51.368;12.364;2024-02-16T02:14:41;101923.81;;;-141.84;98.00
15260;BME280;34462;51.368;12.364;2024-02-16T02:17:10;99003.56;;;-141.84;96.52
15260;BME280;34462;51.368;12.364;2024-02-16T02:19:38;97146.31;;;-141.84;95.85
15260;BME280;34462;51.368;12.364;2024-02-16T02:22:15;93699.44;;;-141.84;94.20
15260;BME280;34462;51.368;12.364;2024-02-16T02:24:47;93699.44;;;-141.84;94.37
15260;BME280;34462;51.368;12.364;2024-02-16T02:27:15;91049.97;;;-141.84;93.30
15260;BME280;34462;51.368;12.364;2024-02-16T02:29:44;93169.38;;;-141.84;94.22
15260;BME280;34462;51.368;12.364;2024-02-16T02:32:12;93434.41;;;-141.84;94.45
15260;BME280;34462;51.368;12.364;2024-02-16T02:34:41;95024.81;;;-141.84;94.91
15260;BME280;34462;51.368;12.364;2024-02-16T02:37:10;93964.47;;;-141.84;94.46
15260;BME280;34462;51.368;12.364;2024-02-16T02:39:40;92639.44;;;-141.84;93.94
15260;BME280;34462;51.368;12.364;2024-02-16T02:42:11;93699.44;;;-141.84;94.39
15260;BME280;34462;51.368;12.364;2024-02-16T02:44:39;96881.06;;;-141.84;95.54
15260;BME280;34462;51.368;12.364;2024-02-16T02:47:11;95555.09;;;-141.84;95.09
15260;BME280;34462;51.368;12.364;2024-02-16T02:49:39;96350.63;;;-141.84;95.49
15260;BME280;34462;51.368;12.364;2024-02-16T02:52:07;98207.50;;;-141.84;96.01
15260;BME280;34462;51.368;12.364;2024-02-16T02:54:36;96350.63;;;-141.84;95.56
15260;BME280;34462;51.368;12.364;2024-02-16T02:57:06;97411.59;;;-141.84;95.81
15260;BME280;34462;51.368;12.364;2024-02-16T02:59:34;96615.84;;;-141.84;95.35
15260;BME280;34462;51.368;12.364;2024-02-16T03:02:06;92374.47;;;-141.84;93.68
15260;BME280;34462;51.368;12.364;2024-02-16T03:04:35;88666.94;;;-141.84;92.13
15260;BME280;34462;51.368;12.364;2024-02-16T03:07:04;82319.06;;;-141.84;90.46
15260;BME280;34462;51.368;12.364;2024-02-16T03:09:32;83376.34;;;-141.84;90.61
15260;BME280;34462;51.368;12.364;2024-02-16T03:12:00;84433.91;;;-141.84;91.23
15260;BME280;34462;51.368;12.364;2024-02-16T03:14:30;88137.56;;;-141.84;92.49
15260;BME280;34462;51.368;12.364;2024-02-16T03:16:59;90785.09;;;-141.84;93.22
15260;BME280;34462;51.368;12.364;2024-02-16T03:19:27;91579.72;;;-141.84;93.60
15260;BME280;34462;51.368;12.364;2024-02-16T03:21:55;90255.47;;;-141.84;92.92
15260;BME280;34462;51.368;12.364;2024-02-16T03:24:23;89990.66;;;-141.84;92.99
15260;BME280;34462;51.368;12.364;2024-02-16T03:26:52;91844.63;;;-141.84;93.65
15260;BME280;34462;51.368;12.364;2024-02-16T03:29:20;86814.44;;;-141.84;91.85
15260;BME280;34462;51.368;12.364;2024-02-16T03:31:50;89461.13;;;-141.84;92.88
15260;BME280;34462;51.368;12.364;2024-02-16T03:34:18;89725.88;;;-141.84;92.99
15260;BME280;34462;51.368;12.364;2024-02-16T03:36:47;89461.13;;;-141.84;92.66
15260;BME280;34462;51.368;12.364;2024-02-16T03:39:15;89196.38;;;-141.84;92.75
15260;BME280;34462;51.368;12.364;2024-02-16T03:41:50;90520.28;;;-141.84;93.19
15260;BME280;34462;51.368;12.364;2024-02-16T03:44:19;88137.56;;;-141.84;92.56
15260;BME280;34462;51.368;12.364;2024-02-16T03:46:52;88666.94;;;-141.84;92.52
15260;BME280;34462;51.368;12.364;2024-02-16T03:49:22;87079.03;;;-141.84;92.16
15260;BME280;34462;51.368;12.364;2024-02-16T03:51:51;87343.63;;;-141.84;92.04
15260;BME280;34462;51.368;12.364;2024-02-16T03:54:19;84169.50;;;-141.84;91.05
15260;BME280;34462;51.368;12.364;2024-02-16T03:56:47;87872.91;;;-141.84;92.40
15260;BME280;34462;51.368;12.364;2024-02-16T03:59:16;90520.28;;;-141.84;93.21
15260;BME280;34462;51.368;12.364;2024-02-16T04:01:44;91579.72;;;-141.84;93.52
15260;BME280;34462;51.368;12.364;2024-02-16T04:04:14;86285.31;;;-141.84;91.60
15260;BME280;34462;51.368;12.364;2024-02-16T04:06:42;86814.44;;;-141.84;92.17
15260;BME280;34462;51.368;12.364;2024-02-16T04:09:11;89461.13;;;-141.84;92.81
15260;BME280;34462;51.368;12.364;2024-02-16T04:11:39;88666.94;;;-141.84;92.53
15260;BME280;34462;51.368;12.364;2024-02-16T04:14:12;91579.72;;;-141.84;93.70
15260;BME280;34462;51.368;12.364;2024-02-16T04:16:42;90785.09;;;-141.84;93.15
15260;BME280;34462;51.368;12.364;2024-02-16T04:19:11;89196.38;;;-141.84;92.60
15260;BME280;34462;51.368;12.364;2024-02-16T04:21:43;82847.66;;;-141.84;90.33
15260;BME280;34462;51.368;12.364;2024-02-16T04:24:14;77828.72;;;-141.84;89.41
15260;BME280;34462;51.368;12.364;2024-02-16T04:26:42;80469.50;;;-141.84;89.93
15260;BME280;34462;51.368;12.364;2024-02-16T04:29:11;78884.81;;;-141.84;89.41
15260;BME280;34462;51.368;12.364;2024-02-16T04:31:39;73343.38;;;-141.84;87.79
15260;BME280;34462;51.368;12.364;2024-02-16T04:34:09;62020.59;;;-141.84;85.26
15260;BME280;34462;51.368;12.364;2024-02-16T04:36:37;38431.88;;;-141.84;81.66
15260;BME280;34462;51.368;12.364;2024-02-16T04:39:07;49419.16;;;-141.84;83.51
15260;BME280;34462;51.368;12.364;2024-02-16T04:41:37;50205.56;;;-141.84;83.46
15260;BME280;34462;51.368;12.364;2024-02-16T04:44:07;42348.44;;;-141.84;82.18
15260;BME280;34462;51.368;12.364;2024-02-16T04:46:35;41825.19;;;-141.84;82.08
15260;BME280;34462;51.368;12.364;2024-02-16T04:49:03;29801.44;;;-141.84;80.39
15260;BME280;34462;51.368;12.364;2024-02-16T04:51:31;32691.75;;;-141.84;81.20
15260;BME280;34462;51.368;12.364;2024-02-16T04:54:00;38270.56;;;-141.84;81.91
15260;BME280;34462;51.368;12.364;2024-02-16T04:56:29;38550.31;;;-141.84;82.00
15260;BME280;34462;51.368;12.364;2024-02-16T04:58:58;46536.97;;;-141.84;83.11
15260;BME280;34462;51.368;12.364;2024-02-16T05:01:27;46013.16;;;-141.84;82.87
15260;BME280;34462;51.368;12.364;2024-02-16T05:03:58;53877.56;;;-141.84;84.28
15260;BME280;34462;51.368;12.364;2024-02-16T05:06:27;55452.34;;;-141.84;84.28
15260;BME280;34462;51.368;12.364;2024-02-16T05:08:57;48632.88;;;-141.84;83.25
15260;BME280;34462;51.368;12.364;2024-02-16T05:11:25;50205.56;;;-141.84;83.61
15260;BME280;34462;51.368;12.364;2024-02-16T05:13:56;50992.13;;;-141.84;83.81
15260;BME280;34462;51.368;12.364;2024-02-16T05:16:26;59129.22;;;-141.84;85.17
15260;BME280;34462;51.368;12.364;2024-02-16T05:18:55;59129.22;;;-141.84;84.94
15260;BME280;34462;51.368;12.364;2024-02-16T05:21:24;57815.66;;;-141.84;84.85
15260;BME280;34462;51.368;12.364;2024-02-16T05:23:52;56239.94;;;-141.84;84.65
15260;BME280;34462;51.368;12.364;2024-02-16T05:26:23;57027.72;;;-141.84;84.51
15260;BME280;34462;51.368;12.364;2024-02-16T05:28:52;54140.00;;;-141.84;84.05
15260;BME280;34462;51.368;12.364;2024-02-16T05:31:21;48894.97;;;-141.84;83.42
15260;BME280;34462;51.368;12.364;2024-02-16T05:33:51;41156.91;;;-141.84;82.30
15260;BME280;34462;51.368;12.364;2024-02-16T05:36:20;33770.59;;;-141.84;81.12
15260;BME280;34462;51.368;12.364;2024-02-16T05:38:52;34268.28;;;-141.84;81.46
15260;BME280;34462;51.368;12.364;2024-02-16T05:41:22;36298.50;;;-141.84;81.57
15260;BME280;34462;51.368;12.364;2024-02-16T05:43:50;34727.28;;;-141.84;81.42
15260;BME280;34462;51.368;12.364;2024-02-16T05:46:20;44180.38;;;-141.84;82.70
15260;BME280;34462;51.368;12.364;2024-02-16T05:48:48;47060.84;;;-141.84;83.10
15260;BME280;34462;51.368;12.364;2024-02-16T05:51:18;45489.41;;;-141.84;82.74
15260;BME280;34462;51.368;12.364;2024-02-16T05:53:46;40543.91;;;-141.84;82.04
15260;BME280;34462;51.368;12.364;2024-02-16T05:56:14;27479.28;;;-141.84;80.12
15260;BME280;34462;51.368;12.364;2024-02-16T05:58:42;29065.94;;;-141.84;80.67
15260;BME280;34462;51.368;12.364;2024-02-16T06:01:11;32078.06;;;-141.84;81.08
15260;BME280;34462;51.368;12.364;2024-02-16T06:03:43;30282.31;;;-141.84;80.64
15260;BME280;34462;51.368;12.364;2024-02-16T06:06:11;28387.63;;;-141.84;80.29
15260;BME280;34462;51.368;12.364;2024-02-16T06:08:40;28245.03;;;-141.84;80.19
15260;BME280;34462;51.368;12.364;2024-02-16T06:11:09;26742.19;;;-141.84;79.84
15260;BME280;34462;51.368;12.364;2024-02-16T06:13:37;19663.44;;;-141.84;76.41
15260;BME280;34462;51.368;12.364;2024-02-16T06:16:06;20667.53;;;-141.84;77.60
15260;BME280;34462;51.368;12.364;2024-02-16T06:18:35;22507.66;;;-141.84;78.67
15260;BME280;34462;51.368;12.364;2024-02-16T06:21:07;19708.16;;;-141.84;76.42
15260;BME280;34462;51.368;12.364;2024-02-16T06:23:35;20165.44;;;-141.84;76.89
15260;BME280;34462;51.368;12.364;2024-02-16T06:26:06;21840.63;;;-141.84;78.54
15260;BME280;34462;51.368;12.364;2024-02-16T06:28:34;24206.22;;;-141.84;79.49
15260;BME280;34462;51.368;12.364;2024-02-16T06:31:03;21181.84;;;-141.84;77.84
15260;BME280;34462;51.368;12.364;2024-02-16T06:33:31;18990.81;;;-141.84;74.61
15260;BME280;34462;51.368;12.364;2024-02-16T06:36:00;18812.00;;;-141.84;73.70
15260;BME280;34462;51.368;12.364;2024-02-16T06:38:30;18942.06;;;-141.84;74.58
15260;BME280;34462;51.368;12.364;2024-02-16T06:40:58;18962.38;;;-141.84;74.92
15260;BME280;34462;51.368;12.364;2024-02-16T06:43:26;18844.53;;;-141.84;74.07
15260;BME280;34462;51.368;12.364;2024-02-16T06:45:55;18832.34;;;-141.84;74.17
15260;BME280;34462;51.368;12.364;2024-02-16T06:48:23;19480.53;;;-141.84;76.32
15260;BME280;34462;51.368;12.364;2024-02-16T06:50:52;19850.41;;;-141.84;76.74
15260;BME280;34462;51.368;12.364;2024-02-16T06:53:21;19383.00;;;-141.84;75.85
15260;BME280;34462;51.368;12.364;2024-02-16T06:55:51;19815.88;;;-141.84;76.69
15260;BME280;34462;51.368;12.364;2024-02-16T06:58:19;19222.47;;;-141.84;75.43
15260;BME280;34462;51.368;12.364;2024-02-16T07:00:48;19370.81;;;-141.84;75.71
15260;BME280;34462;51.368;12.364;2024-02-16T07:03:17;19427.72;;;-141.84;75.97
15260;BME280;34462;51.368;12.364;2024-02-16T07:05:45;19716.28;;;-141.84;76.41
15260;BME280;34462;51.368;12.364;2024-02-16T07:08:13;19163.53;;;-141.84;75.19
15260;BME280;34462;51.368;12.364;2024-02-16T07:10:42;19013.16;;;-141.84;74.78
15260;BME280;34462;51.368;12.364;2024-02-16T07:13:12;18879.06;;;-141.84;73.97
15260;BME280;34462;51.368;12.364;2024-02-16T07:15:40;18946.13;;;-141.84;74.30
15260;BME280;34462;51.368;12.364;2024-02-16T07:18:11;18970.50;;;-141.84;74.39
15260;BME280;34462;51.368;12.364;2024-02-16T07:20:40;18809.97;;;-141.84;73.68
15260;BME280;34462;51.368;12.364;2024-02-16T07:23:09;18537.72;;;-141.84;71.20
15260;BME280;34462;51.368;12.364;2024-02-16T07:25:37;18647.44;;;-141.84;72.71
15260;BME280;34462;51.368;12.364;2024-02-16T07:28:05;18785.59;;;-141.84;73.40
15260;BME280;34462;51.368;12.364;2024-02-16T07:30:35;18801.84;;;-141.84;73.63
15260;BME280;34462;51.368;12.364;2024-02-16T07:33:09;18606.81;;;-141.84;71.64
15260;BME280;34462;51.368;12.364;2024-02-16T07:35:38;18667.75;;;-141.84;72.46
15260;BME280;34462;51.368;12.364;2024-02-16T07:38:06;18523.50;;;-141.84;70.48
15260;BME280;34462;51.368;12.364;2024-02-16T07:40:35;18486.94;;;-141.84;69.27
15260;BME280;34462;51.368;12.364;2024-02-16T07:43:03;18462.56;;;-141.84;69.48
15260;BME280;34462;51.368;12.364;2024-02-16T07:45:32;18436.16;;;-141.84;68.62
15260;BME280;34462;51.368;12.364;2024-02-16T07:48:03;18458.50;;;-141.84;69.08
15260;BME280;34462;51.368;12.364;2024-02-16T07:50:33;18458.50;;;-141.84;69.15
15260;BME280;34462;51.368;12.364;2024-02-16T07:53:01;18460.53;;;-141.84;68.17
15260;BME280;34462;51.368;12.364;2024-02-16T07:55:30;18401.59;;;-141.84;67.42
15260;BME280;34462;51.368;12.364;2024-02-16T07:57:58;18456.47;;;-141.84;68.63
15260;BME280;34462;51.368;12.364;2024-02-16T08:00:27;18513.34;;;-141.84;69.62
15260;BME280;34462;51.368;12.364;2024-02-16T08:02:56;18425.97;;;-141.84;67.30
15260;BME280;34462;51.368;12.364;2024-02-16T08:05:28;18450.38;;;-141.84;67.12
15260;BME280;34462;51.368;12.364;2024-02-16T08:07:56;18423.94;;;-141.84;67.61
15260;BME280;34462;51.368;12.364;2024-02-16T08:10:27;18432.09;;;-141.84;68.20
15260;BME280;34462;51.368;12.364;2024-02-16T08:12:55;18472.72;;;-141.84;68.75
15260;BME280;34462;51.368;12.364;2024-02-16T08:15:27;18425.97;;;-141.84;66.55
15260;BME280;34462;51.368;12.364;2024-02-16T08:17:56;18444.28;;;-141.84;66.00
15260;BME280;34462;51.368;12.364;2024-02-16T08:20:29;18450.38;;;-141.84;65.21
15260;BME280;34462;51.368;12.364;2024-02-16T08:22:57;18438.19;;;-141.84;64.79
15260;BME280;34462;51.368;12.364;2024-02-16T08:25:27;18411.75;;;-141.84;63.03
15260;BME280;34462;51.368;12.364;2024-02-16T08:27:57;18423.94;;;-141.84;62.24
15260;BME280;34462;51.368;12.364;2024-02-16T08:30:27;18444.28;;;-141.84;61.24
15260;BME280;34462;51.368;12.364;2024-02-16T08:32:56;18464.59;;;-141.84;60.72
15260;BME280;34462;51.368;12.364;2024-02-16T08:35:29;18468.66;;;-141.84;59.76
15260;BME280;34462;51.368;12.364;2024-02-16T08:37:57;18480.84;;;-141.84;59.29
15260;BME280;34462;51.368;12.364;2024-02-16T08:40:27;18493.03;;;-141.84;57.90
15260;BME280;34462;51.368;12.364;2024-02-16T08:42:56;18543.81;;;-141.84;56.59
15260;BME280;34462;51.368;12.364;2024-02-16T08:45:27;18547.88;;;-141.84;55.48
15260;BME280;34462;51.368;12.364;2024-02-16T08:47:55;18556.00;;;-141.84;55.20
15260;BME280;34462;51.368;12.364;2024-02-16T08:50:29;18592.59;;;-141.84;54.67
15260;BME280;34462;51.368;12.364;2024-02-16T08:52:57;18606.81;;;-141.84;55.10
15260;BME280;34462;51.368;12.364;2024-02-16T08:55:25;18594.63;;;-141.84;56.01
15260;BME280;34462;51.368;12.364;2024-02-16T08:57:54;18545.84;;;-141.84;56.79
15260;BME280;34462;51.368;12.364;2024-02-16T09:00:23;18545.84;;;-141.84;57.35
15260;BME280;34462;51.368;12.364;2024-02-16T09:02:54;18523.50;;;-141.84;58.15
15260;BME280;34462;51.368;12.364;2024-02-16T09:05:22;18547.88;;;-141.84;58.14
15260;BME280;34462;51.368;12.364;2024-02-16T09:07:52;18513.34;;;-141.84;59.29
15260;BME280;34462;51.368;12.364;2024-02-16T09:10:20;18547.88;;;-141.84;59.27
15260;BME280;34462;51.368;12.364;2024-02-16T09:12:49;18553.97;;;-141.84;59.15
15260;BME280;34462;51.368;12.364;2024-02-16T09:15:18;18537.72;;;-141.84;57.71
15260;BME280;34462;51.368;12.364;2024-02-16T09:17:47;18553.97;;;-141.84;57.99
15260;BME280;34462;51.368;12.364;2024-02-16T09:20:15;18556.00;;;-141.84;56.63
15260;BME280;34462;51.368;12.364;2024-02-16T09:22:50;18527.56;;;-141.84;56.50
15260;BME280;34462;51.368;12.364;2024-02-16T09:25:19;18578.38;;;-141.84;56.72
15260;BME280;34462;51.368;12.364;2024-02-16T09:27:49;18564.13;;;-141.84;56.01
15260;BME280;34462;51.368;12.364;2024-02-16T09:30:17;18604.78;;;-141.84;54.94
15260;BME280;34462;51.368;12.364;2024-02-16T09:32:48;18598.69;;;-141.84;54.63
15260;BME280;34462;51.368;12.364;2024-02-16T09:35:17;18645.41;;;-141.84;54.01
15260;BME280;34462;51.368;12.364;2024-02-16T09:37:45;18643.38;;;-141.84;53.96
15260;BME280;34462;51.368;12.364;2024-02-16T09:40:13;18657.59;;;-141.84;52.91
15260;BME280;34462;51.368;12.364;2024-02-16T09:42:48;18657.59;;;-141.84;53.03
15260;BME280;34462;51.368;12.364;2024-02-16T09:45:18;18673.84;;;-141.84;52.49
15260;BME280;34462;51.368;12.364;2024-02-16T09:47:46;18696.19;;;-141.84;52.43
15260;BME280;34462;51.368;12.364;2024-02-16T09:50:27;18708.41;;;-141.84;51.87
15260;BME280;34462;51.368;12.364;2024-02-16T09:52:57;18708.41;;;-141.84;51.99
15260;BME280;34462;51.368;12.364;2024-02-16T09:55:32;18736.84;;;-141.84;51.01
15260;BME280;34462;51.368;12.364;2024-02-16T09:58:02;18763.25;;;-141.84;50.38
15260;BME280;34462;51.368;12.364;2024-02-16T10:00:32;18818.09;;;-141.84;49.69
15260;BME280;34462;51.368;12.364;2024-02-16T10:03:01;18834.38;;;-141.84;49.39
15260;BME280;34462;51.368;12.364;2024-02-16T10:05:30;18860.78;;;-141.84;48.97
15260;BME280;34462;51.368;12.364;2024-02-16T10:08:11;18836.41;;;-141.84;48.90
15260;BME280;34462;51.368;12.364;2024-02-16T10:10:40;18836.41;;;-141.84;49.05
15260;BME280;34462;51.368;12.364;2024-02-16T10:13:10;18830.31;;;-141.84;49.28
15260;BME280;34462;51.368;12.364;2024-02-16T10:15:39;18883.13;;;-141.84;49.11
15260;BME280;34462;51.368;12.364;2024-02-16T10:18:07;18862.81;;;-141.84;48.76
15260;BME280;34462;51.368;12.364;2024-02-16T10:20:40;18911.56;;;-141.84;48.56
15260;BME280;34462;51.368;12.364;2024-02-16T10:23:10;18915.63;;;-141.84;47.55
15260;BME280;34462;51.368;12.364;2024-02-16T10:25:39;18872.97;;;-141.84;47.96
15260;BME280;34462;51.368;12.364;2024-02-16T10:28:11;18952.22;;;-141.84;47.63
15260;BME280;34462;51.368;12.364;2024-02-16T10:30:41;18927.84;;;-141.84;47.76
15260;BME280;34462;51.368;12.364;2024-02-16T10:33:11;18917.66;;;-141.84;47.86
15260;BME280;34462;51.368;12.364;2024-02-16T10:35:41;18940.03;;;-141.84;48.17
15260;BME280;34462;51.368;12.364;2024-02-16T10:38:10;18913.59;;;-141.84;48.15
15260;BME280;34462;51.368;12.364;2024-02-16T10:40:40;18940.03;;;-141.84;48.05
15260;BME280;34462;51.368;12.364;2024-02-16T10:43:13;18929.88;;;-141.84;47.96
15260;BME280;34462;51.368;12.364;2024-02-16T10:45:42;18927.84;;;-141.84;48.52
15260;BME280;34462;51.368;12.364;2024-02-16T10:48:11;18899.38;;;-141.84;48.72
15260;BME280;34462;51.368;12.364;2024-02-16T10:50:40;18923.78;;;-141.84;48.53
15260;BME280;34462;51.368;12.364;2024-02-16T10:53:15;18980.66;;;-141.84;47.90
15260;BME280;34462;51.368;12.364;2024-02-16T10:55:46;18927.84;;;-141.84;48.67
15260;BME280;34462;51.368;12.364;2024-02-16T10:58:17;18927.84;;;-141.84;48.67
15260;BME280;34462;51.368;12.364;2024-02-16T11:00:51;18927.84;;;-141.84;48.83
15260;BME280;34462;51.368;12.364;2024-02-16T11:03:23;18891.25;;;-141.84;49.82
15260;BME280;34462;51.368;12.364;2024-02-16T11:05:53;18872.97;;;-141.84;49.88
15260;BME280;34462;51.368;12.364;2024-02-16T11:08:25;18883.13;;;-141.84;50.27
15260;BME280;34462;51.368;12.364;2024-02-16T11:10:57;18862.81;;;-141.84;51.21
15260;BME280;34462;51.368;12.364;2024-02-16T11:13:32;18860.78;;;-141.84;51.28
15260;BME280;34462;51.368;12.364;2024-02-16T11:16:02;18832.34;;;-141.84;53.20
15260;BME280;34462;51.368;12.364;2024-02-16T11:18:38;18866.88;;;-141.84;52.68
15260;BME280;34462;51.368;12.364;2024-02-16T11:21:12;18858.75;;;-141.84;51.98
15260;BME280;34462;51.368;12.364;2024-02-16T11:23:41;18891.25;;;-141.84;51.93
15260;BME280;34462;51.368;12.364;2024-02-16T11:26:11;18891.25;;;-141.84;52.16
15260;BME280;34462;51.368;12.364;2024-02-16T11:28:42;18850.63;;;-141.84;52.77
15260;BME280;34462;51.368;12.364;2024-02-16T11:31:10;18860.78;;;-141.84;53.27
15260;BME280;34462;51.368;12.364;2024-02-16T11:33:43;18883.13;;;-141.84;53.43
15260;BME280;34462;51.368;12.364;2024-02-16T11:36:13;18818.09;;;-141.84;53.54
15260;BME280;34462;51.368;12.364;2024-02-16T11:38:41;18795.75;;;-141.84;54.85
15260;BME280;34462;51.368;12.364;2024-02-16T11:41:10;18848.59;;;-141.84;55.08
15260;BME280;34462;51.368;12.364;2024-02-16T11:43:41;18799.81;;;-141.84;55.46
15260;BME280;34462;51.368;12.364;2024-02-16T11:46:13;18816.06;;;-141.84;55.40
15260;BME280;34462;51.368;12.364;2024-02-16T11:48:41;18840.47;;;-141.84;55.27
15260;BME280;34462;51.368;12.364;2024-02-16T11:51:10;18850.63;;;-141.84;54.29
15260;BME280;34462;51.368;12.364;2024-02-16T11:53:39;18824.22;;;-141.84;54.80
15260;BME280;34462;51.368;12.364;2024-02-16T11:56:08;18850.63;;;-141.84;52.73
15260;BME280;34462;51.368;12.364;2024-02-16T11:58:36;18870.94;;;-141.84;53.10
15260;BME280;34462;51.368;12.364;2024-02-16T12:01:11;18899.38;;;-141.84;52.43
15260;BME280;34462;51.368;12.364;2024-02-16T12:03:41;18881.09;;;-141.84;52.02
15260;BME280;34462;51.368;12.364;2024-02-16T12:06:20;18866.88;;;-141.84;52.67
15260;BME280;34462;51.368;12.364;2024-02-16T12:08:51;18885.16;;;-141.84;52.53
15260;BME280;34462;51.368;12.364;2024-02-16T12:11:20;18923.78;;;-141.84;51.51
15260;BME280;34462;51.368;12.364;2024-02-16T12:13:50;18944.09;;;-141.84;50.57
15260;BME280;34462;51.368;12.364;2024-02-16T12:16:20;18964.41;;;-141.84;49.80
15260;BME280;34462;51.368;12.364;2024-02-16T12:18:49;18958.31;;;-141.84;49.76
15260;BME280;34462;51.368;12.364;2024-02-16T12:21:18;18942.06;;;-141.84;49.64
15260;BME280;34462;51.368;12.364;2024-02-16T12:23:47;18980.66;;;-141.84;48.76
15260;BME280;34462;51.368;12.364;2024-02-16T12:26:16;18980.66;;;-141.84;48.93
15260;BME280;34462;51.368;12.364;2024-02-16T12:28:44;18982.69;;;-141.84;48.77
15260;BME280;34462;51.368;12.364;2024-02-16T12:31:20;18998.94;;;-141.84;48.34
15260;BME280;34462;51.368;12.364;2024-02-16T12:33:49;19063.97;;;-141.84;47.72
15260;BME280;34462;51.368;12.364;2024-02-16T12:36:18;19037.56;;;-141.84;47.82
15260;BME280;34462;51.368;12.364;2024-02-16T12:38:46;19033.50;;;-141.84;47.94
15260;BME280;34462;51.368;12.364;2024-02-16T12:41:14;19000.97;;;-141.84;48.33